createdAt,value
2023-02-14T00:00:08.739Z,1.89
2023-02-14T00:02:36.457Z,1.82
2023-02-14T00:05:04.334Z,2.05
2023-02-14T00:07:32.329Z,2.07
2023-02-14T00:09:59.936Z,1.75
2023-02-14T00:12:27.758Z,1.61
2023-02-14T00:15:13.200Z,1.54
2023-02-14T00:17:42.180Z,1.56
2023-02-14T00:20:10.428Z,1.50
2023-02-14T00:22:38.058Z,1.44
2023-02-14T00:25:06.394Z,1.77
2023-02-14T00:27:33.971Z,1.59
2023-02-14T00:30:03.077Z,1.41
2023-02-14T00:32:31.090Z,1.53
2023-02-14T00:35:00.171Z,1.45
2023-02-14T00:37:27.907Z,1.41
2023-02-14T00:39:55.522Z,1.47
2023-02-14T00:42:23.258Z,1.29
2023-02-14T00:44:50.944Z,1.38
2023-02-14T00:47:18.554Z,1.55
2023-02-14T00:49:46.195Z,1.39
2023-02-14T00:52:15.226Z,1.62
2023-02-14T00:54:42.881Z,1.69
2023-02-14T00:57:10.524Z,1.53
2023-02-14T00:59:38.121Z,1.52
2023-02-14T01:02:06.068Z,1.44
2023-02-14T01:04:33.779Z,1.28
2023-02-14T01:07:01.360Z,1.14
2023-02-14T01:09:30.398Z,1.11
2023-02-14T01:11:57.992Z,0.94
2023-02-14T01:14:25.585Z,0.89
2023-02-14T01:16:53.227Z,0.80
2023-02-14T01:19:20.881Z,0.84
2023-02-14T01:21:48.542Z,0.92
2023-02-14T01:24:16.180Z,0.86
2023-02-14T01:26:45.204Z,0.98
2023-02-14T01:29:12.803Z,1.13
2023-02-14T01:31:40.615Z,1.12
2023-02-14T01:34:08.345Z,1.08
2023-02-14T01:36:38.278Z,1.21
2023-02-14T01:39:07.635Z,1.16
2023-02-14T01:41:37.101Z,1.23
2023-02-14T01:44:08.321Z,1.21
2023-02-14T01:46:38.369Z,1.26
2023-02-14T01:49:10.610Z,1.37
2023-02-14T01:51:41.082Z,1.21
2023-02-14T01:54:09.733Z,1.25
2023-02-14T01:56:39.914Z,1.42
2023-02-14T01:59:12.011Z,1.21
2023-02-14T02:01:40.522Z,1.23
2023-02-14T02:04:11.010Z,1.44
2023-02-14T02:06:40.728Z,1.67
2023-02-14T02:09:13.621Z,1.59
2023-02-14T02:11:42.165Z,1.40
2023-02-14T02:14:15.169Z,1.41
2023-02-14T02:17:06.168Z,1.51
2023-02-14T02:20:07.942Z,1.79
2023-02-14T02:22:59.146Z,1.19
2023-02-14T02:25:45.951Z,0.97
2023-02-14T02:28:29.327Z,1.29
2023-02-14T02:35:13.651Z,1.40
2023-02-14T02:37:46.143Z,1.20
2023-02-14T02:40:27.819Z,1.41
2023-02-14T02:43:05.175Z,1.50
2023-02-14T02:46:00.313Z,1.53
2023-02-14T02:48:33.880Z,1.51
2023-02-14T02:51:23.776Z,1.53
2023-02-14T02:53:53.592Z,1.53
2023-02-14T02:56:41.986Z,1.66
2023-02-14T02:59:18.412Z,1.52
2023-02-14T03:01:49.858Z,1.54
2023-02-14T03:04:35.537Z,1.40
2023-02-14T03:07:26.355Z,1.35
2023-02-14T03:09:57.516Z,1.52
2023-02-14T03:12:48.546Z,1.46
2023-02-14T03:15:23.430Z,1.55
2023-02-14T03:18:16.645Z,1.42
2023-02-14T03:20:50.287Z,1.63
2023-02-14T03:23:23.259Z,1.72
2023-02-14T03:26:01.557Z,1.70
2023-02-14T03:28:34.534Z,1.69
2023-02-14T03:31:05.767Z,1.77
2023-02-14T03:33:36.112Z,1.91
2023-02-14T03:36:08.276Z,1.75
2023-02-14T03:38:40.853Z,1.79
2023-02-14T03:41:10.532Z,1.64
2023-02-14T03:43:42.321Z,1.61
2023-02-14T03:46:12.236Z,1.59
2023-02-14T03:48:41.227Z,1.72
2023-02-14T03:51:10.699Z,1.66
2023-02-14T03:53:42.277Z,1.56
2023-02-14T03:56:12.063Z,1.51
2023-02-14T03:58:41.567Z,1.47
2023-02-14T04:01:13.610Z,1.36
2023-02-14T04:03:43.014Z,1.28
2023-02-14T04:06:10.951Z,1.26
2023-02-14T04:08:40.114Z,1.31
2023-02-14T04:11:07.922Z,1.32
2023-02-14T04:13:36.741Z,1.26
2023-02-14T04:16:05.055Z,1.27
2023-02-14T04:18:50.369Z,1.39
2023-02-14T04:21:18.111Z,1.43
2023-02-14T04:23:47.116Z,1.38
2023-02-14T04:26:14.760Z,1.29
2023-02-14T04:28:42.533Z,1.19
2023-02-14T04:31:11.435Z,1.14
2023-02-14T04:33:40.600Z,1.13
2023-02-14T04:36:08.944Z,0.99
2023-02-14T04:38:36.593Z,0.95
2023-02-14T04:41:05.801Z,0.93
2023-02-14T04:43:33.450Z,0.91
2023-02-14T04:46:01.100Z,1.14
2023-02-14T04:48:28.791Z,1.20
2023-02-14T04:50:56.688Z,0.99
2023-02-14T04:53:24.618Z,1.17
2023-02-14T04:55:52.380Z,1.04
2023-02-14T04:58:21.427Z,1.19
2023-02-14T05:00:49.463Z,1.10
2023-02-14T05:03:17.141Z,0.99
2023-02-14T05:05:44.786Z,0.99
2023-02-14T05:08:12.392Z,0.91
2023-02-14T05:10:40.104Z,0.89
2023-02-14T05:13:07.728Z,0.85
2023-02-14T05:15:38.541Z,0.73
2023-02-14T05:18:06.644Z,0.68
2023-02-14T05:20:34.287Z,0.75
2023-02-14T05:23:03.479Z,0.69
2023-02-14T05:25:31.506Z,0.56
2023-02-14T05:28:00.356Z,0.63
2023-02-14T05:30:29.017Z,0.64
2023-02-14T05:32:58.155Z,0.60
2023-02-14T05:35:25.801Z,0.50
2023-02-14T05:37:53.568Z,0.51
2023-02-14T05:40:21.417Z,0.55
2023-02-14T05:42:49.118Z,0.55
2023-02-14T05:45:16.960Z,0.53
2023-02-14T05:47:44.615Z,0.51
2023-02-14T05:50:14.097Z,0.48
2023-02-14T05:52:41.730Z,0.45
2023-02-14T05:55:10.084Z,0.53
2023-02-14T05:57:38.000Z,0.42
2023-02-14T06:00:06.712Z,0.32
2023-02-14T06:02:34.368Z,-0.03
2023-02-14T06:05:02.061Z,0.96
2023-02-14T06:07:31.445Z,0.88
2023-02-14T06:09:59.327Z,0.39
2023-02-14T06:12:26.998Z,0.37
2023-02-14T06:14:54.665Z,0.38
2023-02-14T06:17:22.368Z,0.36
2023-02-14T06:19:50.021Z,0.46
2023-02-14T06:22:17.658Z,0.10
2023-02-14T06:24:46.677Z,0.03
2023-02-14T06:27:14.371Z,0.11
2023-02-14T06:29:42.258Z,0.06
2023-02-14T06:32:10.052Z,0.16
2023-02-14T06:34:37.844Z,-0.03
2023-02-14T06:37:05.467Z,-0.09
2023-02-14T06:39:33.147Z,0.04
2023-02-14T06:42:02.262Z,0.12
2023-02-14T06:44:29.872Z,0.22
2023-02-14T06:46:57.766Z,0.17
2023-02-14T06:49:25.407Z,0.25
2023-02-14T06:51:53.034Z,0.15
2023-02-14T06:54:20.831Z,0.51
2023-02-14T06:56:48.716Z,0.41
2023-02-14T06:59:17.958Z,0.49
2023-02-14T07:01:45.959Z,0.45
2023-02-14T07:04:13.730Z,0.38
2023-02-14T07:06:41.528Z,0.45
2023-02-14T07:09:09.179Z,0.46
2023-02-14T07:11:39.117Z,0.44
2023-02-14T07:14:06.897Z,0.37
2023-02-14T07:16:35.976Z,0.66
2023-02-14T07:19:03.921Z,0.50
2023-02-14T07:21:31.616Z,0.56
2023-02-14T07:23:59.305Z,0.56
2023-02-14T07:26:27.004Z,0.47
2023-02-14T07:28:54.696Z,0.44
2023-02-14T07:31:23.634Z,0.54
2023-02-14T07:33:53.312Z,0.52
2023-02-14T07:36:21.216Z,0.69
2023-02-14T07:38:49.108Z,0.78
2023-02-14T07:41:17.039Z,0.97
2023-02-14T07:43:44.976Z,1.07
2023-02-14T07:46:12.858Z,1.14
2023-02-14T07:48:40.586Z,1.24
2023-02-14T07:51:10.051Z,1.27
2023-02-14T07:53:37.802Z,1.33
2023-02-14T07:56:05.757Z,1.35
2023-02-14T07:58:33.488Z,1.46
2023-02-14T08:01:01.630Z,1.58
2023-02-14T08:03:29.781Z,1.66
2023-02-14T08:06:00.280Z,1.87
2023-02-14T08:08:31.732Z,1.73
2023-02-14T08:11:00.645Z,1.87
2023-02-14T08:13:27.587Z,4.93
2023-02-14T08:16:07.716Z,4.80
2023-02-14T08:18:38.132Z,4.81
2023-02-14T08:21:07.827Z,4.71
2023-02-14T08:23:38.219Z,4.74
2023-02-14T08:26:06.206Z,4.82
2023-02-14T08:28:34.953Z,4.96
2023-02-14T08:31:04.099Z,4.86
2023-02-14T08:33:32.092Z,4.93
2023-02-14T08:36:00.287Z,5.02
2023-02-14T08:38:27.982Z,5.11
2023-02-14T08:41:01.321Z,5.20
2023-02-14T08:43:29.348Z,5.20
2023-02-14T08:45:57.387Z,5.38
2023-02-14T08:48:26.798Z,5.45
2023-02-14T08:50:54.762Z,5.44
2023-02-14T08:53:22.995Z,5.60
2023-02-14T08:55:50.698Z,5.61
2023-02-14T08:58:19.834Z,5.66
2023-02-14T09:00:47.722Z,5.73
2023-02-14T09:03:15.427Z,5.86
2023-02-14T09:05:43.154Z,6.11
2023-02-14T09:08:10.872Z,6.15
2023-02-14T09:10:38.830Z,6.31
2023-02-14T09:13:07.160Z,6.28
2023-02-14T09:15:36.272Z,6.39
2023-02-14T09:18:04.062Z,6.64
2023-02-14T09:20:31.871Z,7.01
2023-02-14T09:22:59.507Z,6.98
2023-02-14T09:25:27.143Z,7.00
2023-02-14T09:27:54.830Z,7.25
2023-02-14T09:30:22.642Z,7.48
2023-02-14T09:32:53.940Z,7.75
2023-02-14T09:35:21.626Z,7.75
2023-02-14T09:38:06.868Z,7.69
2023-02-14T09:40:35.258Z,7.77
2023-02-14T09:43:10.979Z,7.86
2023-02-14T09:45:39.529Z,7.92
2023-02-14T09:48:13.659Z,8.23
2023-02-14T09:50:43.748Z,8.18
2023-02-14T09:53:19.833Z,8.34
2023-02-14T09:55:53.480Z,8.34
2023-02-14T09:58:24.169Z,8.40
2023-02-14T10:00:56.984Z,8.68
2023-02-14T10:03:41.114Z,8.79
2023-02-14T10:06:15.236Z,8.85
2023-02-14T10:08:49.602Z,9.12
2023-02-14T10:11:24.989Z,9.15
2023-02-14T10:13:54.619Z,9.23
2023-02-14T10:16:27.133Z,9.40
2023-02-14T10:18:58.995Z,9.42
2023-02-14T10:21:30.825Z,9.33
2023-02-14T10:24:03.526Z,9.28
2023-02-14T10:26:35.159Z,9.06
2023-02-14T10:29:05.019Z,9.18
2023-02-14T10:31:37.399Z,9.14
2023-02-14T10:34:09.719Z,9.40
2023-02-14T10:36:45.810Z,9.62
2023-02-14T10:39:32.361Z,9.57
2023-02-14T10:42:06.462Z,9.41
2023-02-14T10:44:41.680Z,9.52
2023-02-14T10:47:17.280Z,9.57
2023-02-14T10:49:50.816Z,9.75
2023-02-14T10:52:25.121Z,9.56
2023-02-14T10:54:55.304Z,9.83
2023-02-14T10:57:27.698Z,9.88
2023-02-14T10:59:59.304Z,10.23
2023-02-14T11:02:30.713Z,10.05
2023-02-14T11:05:00.118Z,10.35
2023-02-14T11:07:27.965Z,10.42
2023-02-14T11:09:55.624Z,10.17
2023-02-14T11:12:33.713Z,10.41
2023-02-14T11:15:11.302Z,10.36
2023-02-14T11:17:39.191Z,10.53
2023-02-14T11:20:24.543Z,10.53
2023-02-14T11:22:52.327Z,10.95
2023-02-14T11:25:22.298Z,11.04
2023-02-14T11:27:53.301Z,11.25
2023-02-14T11:30:24.299Z,11.19
2023-02-14T11:32:56.045Z,11.33
2023-02-14T11:35:34.049Z,11.26
2023-02-14T11:38:03.577Z,11.10
2023-02-14T11:40:32.511Z,10.79
2023-02-14T11:43:17.362Z,11.48
2023-02-14T11:45:46.186Z,11.41
2023-02-14T11:48:24.792Z,11.42
2023-02-14T11:51:03.091Z,10.94
2023-02-14T11:53:39.266Z,11.39
2023-02-14T11:56:07.831Z,11.75
2023-02-14T11:58:37.728Z,11.88
2023-02-14T12:01:05.705Z,11.87
2023-02-14T12:03:39.359Z,12.09
2023-02-14T12:06:08.410Z,12.10
2023-02-14T12:08:38.969Z,12.04
2023-02-14T12:11:18.135Z,12.20
2023-02-14T12:13:53.940Z,12.37
2023-02-14T12:16:27.384Z,11.95
2023-02-14T12:18:57.633Z,12.33
2023-02-14T12:21:49.773Z,12.77
2023-02-14T12:24:21.785Z,12.48
2023-02-14T12:26:53.460Z,12.32
2023-02-14T12:29:26.256Z,12.49
2023-02-14T12:31:54.749Z,12.69
2023-02-14T12:34:22.815Z,12.89
2023-02-14T12:37:03.301Z,13.10
2023-02-14T12:39:37.621Z,12.81
2023-02-14T12:42:16.266Z,12.96
2023-02-14T12:44:51.183Z,12.76
2023-02-14T12:47:21.649Z,12.92
2023-02-14T12:50:08.086Z,12.97
2023-02-14T12:52:50.754Z,13.18
2023-02-14T12:55:37.539Z,12.68
2023-02-14T12:58:15.383Z,12.60
2023-02-14T13:00:50.047Z,12.97
2023-02-14T13:03:32.411Z,13.19
2023-02-14T13:06:04.146Z,13.34
2023-02-14T13:08:48.652Z,13.28
2023-02-14T13:11:21.250Z,13.22
2023-02-14T13:13:56.679Z,13.13
2023-02-14T13:16:29.208Z,13.34
2023-02-14T13:19:01.106Z,13.27
2023-02-14T13:21:32.506Z,13.48
2023-02-14T13:24:12.556Z,13.65
2023-02-14T13:26:41.660Z,13.67
2023-02-14T13:29:12.605Z,13.38
2023-02-14T13:31:41.441Z,13.17
2023-02-14T13:34:22.942Z,13.63
2023-02-14T13:36:50.834Z,13.97
2023-02-14T13:39:25.900Z,13.78
2023-02-14T13:41:53.543Z,14.04
2023-02-14T13:44:45.967Z,14.24
2023-02-14T13:47:21.191Z,14.25
2023-02-14T13:49:51.496Z,14.13
2023-02-14T13:52:44.555Z,14.53
2023-02-14T13:55:19.536Z,14.13
2023-02-14T13:57:48.233Z,14.93
2023-02-14T14:00:30.254Z,16.16
2023-02-14T14:02:58.331Z,16.79
2023-02-14T14:06:00.276Z,17.15
2023-02-14T14:08:49.627Z,16.99
2023-02-14T14:11:53.222Z,17.32
2023-02-14T14:14:36.314Z,17.87
2023-02-14T14:17:19.061Z,18.32
2023-02-14T14:19:47.526Z,19.57
2023-02-14T14:22:16.448Z,18.98
2023-02-14T14:24:54.794Z,19.34
2023-02-14T14:27:26.264Z,20.53
2023-02-14T14:29:55.686Z,20.61
2023-02-14T14:32:29.496Z,20.68
2023-02-14T14:34:58.845Z,21.16
2023-02-14T14:37:28.634Z,20.62
2023-02-14T14:39:57.582Z,21.71
2023-02-14T14:42:28.037Z,20.69
2023-02-14T14:44:57.743Z,21.63
2023-02-14T14:47:28.342Z,20.59
2023-02-14T14:49:59.410Z,21.03
2023-02-14T14:52:33.226Z,20.84
2023-02-14T14:55:02.164Z,20.56
2023-02-14T14:57:31.580Z,21.10
2023-02-14T15:00:18.757Z,20.37
2023-02-14T15:03:01.463Z,20.43
2023-02-14T15:05:32.673Z,19.76
2023-02-14T15:08:14.902Z,20.26
2023-02-14T15:10:42.705Z,21.09
2023-02-14T15:13:31.242Z,21.36
2023-02-14T15:16:00.384Z,20.69
2023-02-14T15:18:29.384Z,20.83
2023-02-14T15:20:57.398Z,19.53
2023-02-14T15:23:25.866Z,20.00
2023-02-14T15:25:53.732Z,19.21
2023-02-14T15:28:30.406Z,19.38
2023-02-14T15:31:03.096Z,16.70
2023-02-14T15:33:32.317Z,16.47
2023-02-14T15:36:03.581Z,15.21
2023-02-14T15:38:31.803Z,14.99
2023-02-14T15:41:00.660Z,15.15
2023-02-14T15:43:32.479Z,14.62
2023-02-14T15:46:03.034Z,13.95
2023-02-14T15:48:33.337Z,13.11
2023-02-14T15:51:05.099Z,13.32
2023-02-14T15:53:41.939Z,12.82
2023-02-14T15:56:12.331Z,12.51
2023-02-14T15:58:41.776Z,11.98
2023-02-14T16:01:10.406Z,12.05
2023-02-14T16:03:40.451Z,12.23
2023-02-14T16:06:08.150Z,12.15
2023-02-14T16:08:36.985Z,11.32
2023-02-14T16:11:06.002Z,10.48
2023-02-14T16:13:35.647Z,10.62
2023-02-14T16:16:06.569Z,10.22
2023-02-14T16:18:37.397Z,10.51
2023-02-14T16:21:13.555Z,10.63
2023-02-14T16:23:41.949Z,9.75
2023-02-14T16:26:09.899Z,9.87
2023-02-14T16:28:38.599Z,9.59
2023-02-14T16:31:10.562Z,9.42
2023-02-14T16:33:39.975Z,9.61
2023-02-14T16:36:10.384Z,9.44
2023-02-14T16:38:43.589Z,9.86
2023-02-14T16:41:17.834Z,9.57
2023-02-14T16:43:46.016Z,9.09
2023-02-14T16:46:16.546Z,9.00
2023-02-14T16:48:45.473Z,8.91
2023-02-14T16:51:14.509Z,8.79
2023-02-14T16:53:43.374Z,8.47
2023-02-14T16:56:15.413Z,8.50
2023-02-14T16:58:43.072Z,8.19
2023-02-14T17:01:10.758Z,8.11
2023-02-14T17:03:42.575Z,7.76
2023-02-14T17:06:14.676Z,7.79
2023-02-14T17:08:43.171Z,7.71
2023-02-14T17:11:11.137Z,7.42
2023-02-14T17:13:41.042Z,7.12
2023-02-14T17:16:11.083Z,7.06
2023-02-14T17:18:42.072Z,7.21
2023-02-14T17:21:09.913Z,7.25
2023-02-14T17:23:37.558Z,6.93
2023-02-14T17:26:06.044Z,7.07
2023-02-14T17:28:33.781Z,7.08
2023-02-14T17:31:01.719Z,7.11
2023-02-14T17:33:30.462Z,6.93
2023-02-14T17:36:05.249Z,6.91
2023-02-14T17:38:32.895Z,6.79
2023-02-14T17:41:00.901Z,6.65
2023-02-14T17:43:28.734Z,6.52
2023-02-14T17:45:56.691Z,6.54
2023-02-14T17:48:24.336Z,6.32
2023-02-14T17:50:52.008Z,6.20
2023-02-14T17:53:21.245Z,6.26
2023-02-14T17:55:49.198Z,6.21
2023-02-14T17:58:16.849Z,6.06
2023-02-14T18:00:44.499Z,6.03
2023-02-14T18:03:12.185Z,5.83
2023-02-14T18:05:39.811Z,5.93
2023-02-14T18:08:07.915Z,5.92
2023-02-14T18:10:38.520Z,5.79
2023-02-14T18:13:06.195Z,6.06
2023-02-14T18:15:35.103Z,6.22
2023-02-14T18:18:02.872Z,6.33
2023-02-14T18:20:30.825Z,6.37
2023-02-14T18:22:58.451Z,6.31
2023-02-14T18:25:26.200Z,6.19
2023-02-14T18:27:55.226Z,6.01
2023-02-14T18:30:23.157Z,5.90
2023-02-14T18:32:50.832Z,5.86
2023-02-14T18:35:18.738Z,5.69
2023-02-14T18:37:46.423Z,5.88
2023-02-14T18:40:20.168Z,5.93
2023-02-14T18:42:48.076Z,6.06
2023-02-14T18:45:17.354Z,5.93
2023-02-14T18:47:45.089Z,5.90
2023-02-14T18:50:12.955Z,5.81
2023-02-14T18:52:40.637Z,5.84
2023-02-14T18:55:08.476Z,6.02
2023-02-14T18:57:36.945Z,5.96
2023-02-14T19:00:07.961Z,5.97
2023-02-14T19:02:37.264Z,5.98
2023-02-14T19:05:05.379Z,6.06
2023-02-14T19:07:33.010Z,6.13
2023-02-14T19:10:01.425Z,6.11
2023-02-14T19:12:32.089Z,6.05
2023-02-14T19:14:59.763Z,6.13
2023-02-14T19:17:27.648Z,6.07
2023-02-14T19:19:57.196Z,6.01
2023-02-14T19:22:25.225Z,5.89
2023-02-14T19:24:53.816Z,5.83
2023-02-14T19:27:22.574Z,5.87
2023-02-14T19:29:50.602Z,5.87
2023-02-14T19:32:18.643Z,5.60
2023-02-14T19:34:46.512Z,5.30
2023-02-14T19:37:15.712Z,5.06
2023-02-14T19:39:44.726Z,5.10
2023-02-14T19:42:12.349Z,5.09
2023-02-14T19:44:40.473Z,5.10
2023-02-14T19:47:25.278Z,5.23
2023-02-14T19:49:55.919Z,5.36
2023-02-14T19:52:26.622Z,5.36
2023-02-14T19:54:55.443Z,5.57
2023-02-14T19:57:23.086Z,5.51
2023-02-14T19:59:50.776Z,5.37
2023-02-14T20:02:19.879Z,5.10
2023-02-14T20:04:47.560Z,5.00
2023-02-14T20:07:16.764Z,5.24
2023-02-14T20:09:45.914Z,5.21
2023-02-14T20:12:14.064Z,5.35
2023-02-14T20:14:51.245Z,5.39
2023-02-14T20:17:20.533Z,5.32
2023-02-14T20:19:48.932Z,4.84
2023-02-14T20:22:16.568Z,4.44
2023-02-14T20:24:45.996Z,4.55
2023-02-14T20:27:13.673Z,4.67
2023-02-14T20:29:43.249Z,4.59
2023-02-14T20:32:10.901Z,4.34
2023-02-14T20:34:38.545Z,4.10
2023-02-14T20:37:06.205Z,4.23
2023-02-14T20:39:35.888Z,4.28
2023-02-14T20:42:06.039Z,3.89
2023-02-14T20:44:33.857Z,4.13
2023-02-14T20:47:01.726Z,4.13
2023-02-14T20:49:31.112Z,4.02
2023-02-14T20:51:59.794Z,3.99
2023-02-14T20:54:28.957Z,3.75
2023-02-14T20:56:58.080Z,3.83
2023-02-14T20:59:28.982Z,3.93
2023-02-14T21:01:57.417Z,3.98
2023-02-14T21:04:25.550Z,4.01
2023-02-14T21:06:53.418Z,4.08
2023-02-14T21:09:21.655Z,4.12
2023-02-14T21:11:50.252Z,4.21
2023-02-14T21:14:18.214Z,3.71
2023-02-14T21:16:47.292Z,3.69
2023-02-14T21:19:14.971Z,3.83
2023-02-14T21:21:42.886Z,3.95
2023-02-14T21:24:12.406Z,3.79
2023-02-14T21:26:40.430Z,3.79
2023-02-14T21:29:09.383Z,3.33
2023-02-14T21:31:37.657Z,3.07
2023-02-14T21:34:06.874Z,2.68
2023-02-14T21:36:36.630Z,3.02
2023-02-14T21:39:05.829Z,3.46
2023-02-14T21:41:33.911Z,3.64
2023-02-14T21:44:02.756Z,3.58
2023-02-14T21:46:31.383Z,3.71
2023-02-14T21:49:16.779Z,3.72
2023-02-14T21:51:46.934Z,3.76
2023-02-14T21:54:15.379Z,3.92
2023-02-14T21:56:43.856Z,3.75
2023-02-14T21:59:12.321Z,3.79
2023-02-14T22:01:42.518Z,3.64
2023-02-14T22:04:12.268Z,3.54
2023-02-14T22:06:41.835Z,3.57
2023-02-14T22:09:12.326Z,3.61
2023-02-14T22:11:39.980Z,3.65
2023-02-14T22:14:07.694Z,3.58
2023-02-14T22:16:36.864Z,3.64
2023-02-14T22:19:05.273Z,3.46
2023-02-14T22:21:33.480Z,3.17
2023-02-14T22:24:02.129Z,3.01
2023-02-14T22:26:33.732Z,3.10
2023-02-14T22:29:03.023Z,3.16
2023-02-14T22:31:34.058Z,3.27
2023-02-14T22:34:01.784Z,3.29
2023-02-14T22:36:29.705Z,3.34
2023-02-14T22:38:57.405Z,3.44
2023-02-14T22:41:25.928Z,3.46
2023-02-14T22:43:55.463Z,3.45
2023-02-14T22:46:24.979Z,3.17
2023-02-14T22:48:53.421Z,3.31
2023-02-14T22:51:24.187Z,3.29
2023-02-14T22:53:53.269Z,3.24
2023-02-14T22:56:22.624Z,3.18
2023-02-14T22:58:53.685Z,3.27
2023-02-14T23:01:24.065Z,3.22
2023-02-14T23:03:54.784Z,3.18
2023-02-14T23:06:22.986Z,3.04
2023-02-14T23:08:50.728Z,3.10
2023-02-14T23:11:20.041Z,3.03
2023-02-14T23:14:05.421Z,2.95
2023-02-14T23:16:52.090Z,2.80
2023-02-14T23:19:39.336Z,2.66
2023-02-14T23:22:09.457Z,2.29
2023-02-14T23:24:37.344Z,2.59
2023-02-14T23:27:05.575Z,2.43
2023-02-14T23:29:33.706Z,2.60
2023-02-14T23:32:03.004Z,2.66
2023-02-14T23:34:32.541Z,2.75
2023-02-14T23:37:00.443Z,2.74
2023-02-14T23:39:28.378Z,2.66
2023-02-14T23:41:56.122Z,2.62
2023-02-14T23:44:25.546Z,2.62
2023-02-14T23:46:55.527Z,2.75
2023-02-14T23:49:25.601Z,2.59
2023-02-14T23:51:54.901Z,2.60
2023-02-14T23:54:23.475Z,2.26
2023-02-14T23:56:52.265Z,2.20
2023-02-14T23:59:20.683Z,2.34
